sensor_id;sensor_type;location;lat;lon;timestamp;temperature;humidity
39751;DHT22;37579;51.074;17.004;2023-11-21T00:00:19;23.80;62.50
39751;DHT22;37579;51.074;17.004;2023-11-21T00:02:45;23.80;62.50
39751;DHT22;37579;51.074;17.004;2023-11-21T00:05:13;23.80;62.50
39751;DHT22;37579;51.074;17.004;2023-11-21T00:07:43;23.80;62.50
39751;DHT22;37579;51.074;17.004;2023-11-21T00:10:09;23.80;62.50
39751;DHT22;37579;51.074;17.004;2023-11-21T00:12:36;23.80;62.50
39751;DHT22;37579;51.074;17.004;2023-11-21T00:15:04;23.80;63.20
39751;DHT22;37579;51.074;17.004;2023-11-21T00:17:37;23.80;62.50
39751;DHT22;37579;51.074;17.004;2023-11-21T00:20:04;23.80;62.50
39751;DHT22;37579;51.074;17.004;2023-11-21T00:22:35;23.80;62.60
39751;DHT22;37579;51.074;17.004;2023-11-21T00:25:01;23.70;62.50
39751;DHT22;37579;51.074;17.004;2023-11-21T00:27:29;23.70;62.70
39751;DHT22;37579;51.074;17.004;2023-11-21T00:29:55;23.80;62.60
39751;DHT22;37579;51.074;17.004;2023-11-21T00:32:21;23.70;62.40
39751;DHT22;37579;51.074;17.004;2023-11-21T00:34:47;23.70;62.50
39751;DHT22;37579;51.074;17.004;2023-11-21T00:37:12;23.70;62.50
39751;DHT22;37579;51.074;17.004;2023-11-21T00:39:38;23.70;62.60
39751;DHT22;37579;51.074;17.004;2023-11-21T00:42:06;23.70;62.50
39751;DHT22;37579;51.074;17.004;2023-11-21T00:44:31;23.70;62.50
39751;DHT22;37579;51.074;17.004;2023-11-21T00:46:59;23.70;62.50
39751;DHT22;37579;51.074;17.004;2023-11-21T00:49:25;23.70;62.50
39751;DHT22;37579;51.074;17.004;2023-11-21T00:51:51;23.70;62.60
39751;DHT22;37579;51.074;17.004;2023-11-21T00:54:17;23.60;62.70
39751;DHT22;37579;51.074;17.004;2023-11-21T00:56:43;23.70;62.60
39751;DHT22;37579;51.074;17.004;2023-11-21T00:59:09;23.60;62.50
39751;DHT22;37579;51.074;17.004;2023-11-21T01:01:36;23.60;62.60
39751;DHT22;37579;51.074;17.004;2023-11-21T01:04:04;23.60;62.60
39751;DHT22;37579;51.074;17.004;2023-11-21T01:06:33;23.70;62.70
39751;DHT22;37579;51.074;17.004;2023-11-21T01:08:59;23.60;62.70
39751;DHT22;37579;51.074;17.004;2023-11-21T01:11:25;23.70;62.60
39751;DHT22;37579;51.074;17.004;2023-11-21T01:13:50;23.60;62.60
39751;DHT22;37579;51.074;17.004;2023-11-21T01:16:16;23.60;62.60
39751;DHT22;37579;51.074;17.004;2023-11-21T01:18:42;23.60;62.70
39751;DHT22;37579;51.074;17.004;2023-11-21T01:21:08;23.60;62.80
39751;DHT22;37579;51.074;17.004;2023-11-21T01:23:34;23.60;62.80
39751;DHT22;37579;51.074;17.004;2023-11-21T01:26:00;23.60;62.80
39751;DHT22;37579;51.074;17.004;2023-11-21T01:28:26;23.50;62.70
39751;DHT22;37579;51.074;17.004;2023-11-21T01:30:52;23.60;62.90
39751;DHT22;37579;51.074;17.004;2023-11-21T01:33:19;23.50;62.80
39751;DHT22;37579;51.074;17.004;2023-11-21T01:35:45;23.60;62.90
39751;DHT22;37579;51.074;17.004;2023-11-21T01:38:12;23.50;62.80
39751;DHT22;37579;51.074;17.004;2023-11-21T01:40:38;23.50;62.90
39751;DHT22;37579;51.074;17.004;2023-11-21T01:43:04;23.50;62.90
39751;DHT22;37579;51.074;17.004;2023-11-21T01:45:30;23.50;63.00
39751;DHT22;37579;51.074;17.004;2023-11-21T01:47:59;23.50;63.00
39751;DHT22;37579;51.074;17.004;2023-11-21T01:50:26;23.40;63.00
39751;DHT22;37579;51.074;17.004;2023-11-21T01:52:53;23.50;63.00
39751;DHT22;37579;51.074;17.004;2023-11-21T01:55:19;23.50;63.00
39751;DHT22;37579;51.074;17.004;2023-11-21T01:57:46;23.50;63.00
39751;DHT22;37579;51.074;17.004;2023-11-21T02:00:13;23.50;63.00
39751;DHT22;37579;51.074;17.004;2023-11-21T02:02:51;23.40;63.10
39751;DHT22;37579;51.074;17.004;2023-11-21T02:05:18;23.50;63.00
39751;DHT22;37579;51.074;17.004;2023-11-21T02:07:45;23.50;63.00
39751;DHT22;37579;51.074;17.004;2023-11-21T02:10:13;23.50;63.00
39751;DHT22;37579;51.074;17.004;2023-11-21T02:12:43;23.50;63.00
39751;DHT22;37579;51.074;17.004;2023-11-21T02:15:13;23.50;63.00
39751;DHT22;37579;51.074;17.004;2023-11-21T02:17:46;23.40;63.00
39751;DHT22;37579;51.074;17.004;2023-11-21T02:20:13;23.40;63.10
39751;DHT22;37579;51.074;17.004;2023-11-21T02:22:48;23.40;63.00
39751;DHT22;37579;51.074;17.004;2023-11-21T02:25:14;23.40;62.70
39751;DHT22;37579;51.074;17.004;2023-11-21T02:27:40;23.40;62.90
39751;DHT22;37579;51.074;17.004;2023-11-21T02:30:07;23.40;63.00
39751;DHT22;37579;51.074;17.004;2023-11-21T02:32:37;23.40;63.00
39751;DHT22;37579;51.074;17.004;2023-11-21T02:35:05;23.40;63.00
39751;DHT22;37579;51.074;17.004;2023-11-21T02:37:33;23.40;63.10
39751;DHT22;37579;51.074;17.004;2023-11-21T02:39:59;23.30;63.10
39751;DHT22;37579;51.074;17.004;2023-11-21T02:42:25;23.40;63.20
39751;DHT22;37579;51.074;17.004;2023-11-21T02:44:51;23.40;63.10
39751;DHT22;37579;51.074;17.004;2023-11-21T02:47:16;23.40;63.10
39751;DHT22;37579;51.074;17.004;2023-11-21T02:49:42;23.40;63.10
39751;DHT22;37579;51.074;17.004;2023-11-21T02:52:09;23.40;63.10
39751;DHT22;37579;51.074;17.004;2023-11-21T02:54:35;23.30;63.00
39751;DHT22;37579;51.074;17.004;2023-11-21T02:57:02;23.30;63.10
39751;DHT22;37579;51.074;17.004;2023-11-21T02:59:29;23.30;63.10
39751;DHT22;37579;51.074;17.004;2023-11-21T03:01:55;23.30;63.00
39751;DHT22;37579;51.074;17.004;2023-11-21T03:04:23;23.30;63.00
39751;DHT22;37579;51.074;17.004;2023-11-21T03:06:48;23.30;63.00
39751;DHT22;37579;51.074;17.004;2023-11-21T03:09:14;23.30;63.10
39751;DHT22;37579;51.074;17.004;2023-11-21T03:11:41;23.30;63.00
39751;DHT22;37579;51.074;17.004;2023-11-21T03:14:07;23.30;63.00
39751;DHT22;37579;51.074;17.004;2023-11-21T03:16:33;23.30;63.00
39751;DHT22;37579;51.074;17.004;2023-11-21T03:19:00;23.30;63.00
39751;DHT22;37579;51.074;17.004;2023-11-21T03:21:27;23.30;63.00
39751;DHT22;37579;51.074;17.004;2023-11-21T03:23:52;23.30;63.00
39751;DHT22;37579;51.074;17.004;2023-11-21T03:26:18;23.30;63.10
39751;DHT22;37579;51.074;17.004;2023-11-21T03:28:44;23.30;63.20
39751;DHT22;37579;51.074;17.004;2023-11-21T03:31:11;23.30;63.00
39751;DHT22;37579;51.074;17.004;2023-11-21T03:33:37;23.30;63.00
39751;DHT22;37579;51.074;17.004;2023-11-21T03:36:03;23.30;63.00
39751;DHT22;37579;51.074;17.004;2023-11-21T03:38:29;23.30;63.10
39751;DHT22;37579;51.074;17.004;2023-11-21T03:40:56;23.30;63.00
39751;DHT22;37579;51.074;17.004;2023-11-21T03:43:21;23.30;63.00
39751;DHT22;37579;51.074;17.004;2023-11-21T03:45:47;23.30;63.00
39751;DHT22;37579;51.074;17.004;2023-11-21T03:48:14;23.30;63.00
39751;DHT22;37579;51.074;17.004;2023-11-21T03:50:40;23.30;62.90
39751;DHT22;37579;51.074;17.004;2023-11-21T03:53:06;23.30;62.90
39751;DHT22;37579;51.074;17.004;2023-11-21T03:55:31;23.30;63.00
39751;DHT22;37579;51.074;17.004;2023-11-21T03:57:58;23.30;62.90
39751;DHT22;37579;51.074;17.004;2023-11-21T04:00:24;23.30;62.90
39751;DHT22;37579;51.074;17.004;2023-11-21T04:02:52;23.30;62.90
39751;DHT22;37579;51.074;17.004;2023-11-21T04:05:20;23.30;62.90
39751;DHT22;37579;51.074;17.004;2023-11-21T04:07:49;23.30;63.00
39751;DHT22;37579;51.074;17.004;2023-11-21T04:10:15;23.30;62.80
39751;DHT22;37579;51.074;17.004;2023-11-21T04:12:41;23.30;62.80
39751;DHT22;37579;51.074;17.004;2023-11-21T04:15:07;23.20;62.80
39751;DHT22;37579;51.074;17.004;2023-11-21T04:17:34;23.30;62.80
39751;DHT22;37579;51.074;17.004;2023-11-21T04:20:00;23.30;62.80
39751;DHT22;37579;51.074;17.004;2023-11-21T04:22:26;23.30;62.70
39751;DHT22;37579;51.074;17.004;2023-11-21T04:24:52;23.30;62.80
39751;DHT22;37579;51.074;17.004;2023-11-21T04:27:17;23.30;62.70
39751;DHT22;37579;51.074;17.004;2023-11-21T04:29:44;23.30;62.70
39751;DHT22;37579;51.074;17.004;2023-11-21T04:32:09;23.30;62.70
39751;DHT22;37579;51.074;17.004;2023-11-21T04:34:36;23.30;62.60
39751;DHT22;37579;51.074;17.004;2023-11-21T04:37:01;23.30;62.60
39751;DHT22;37579;51.074;17.004;2023-11-21T04:39:28;23.30;62.70
39751;DHT22;37579;51.074;17.004;2023-11-21T04:41:54;23.30;62.70
39751;DHT22;37579;51.074;17.004;2023-11-21T04:44:20;23.30;62.70
39751;DHT22;37579;51.074;17.004;2023-11-21T04:46:45;23.30;62.60
39751;DHT22;37579;51.074;17.004;2023-11-21T04:49:11;23.30;62.60
39751;DHT22;37579;51.074;17.004;2023-11-21T04:51:37;23.30;62.50
39751;DHT22;37579;51.074;17.004;2023-11-21T04:54:02;23.30;62.60
39751;DHT22;37579;51.074;17.004;2023-11-21T04:56:28;23.20;62.50
39751;DHT22;37579;51.074;17.004;2023-11-21T04:58:54;23.30;62.70
39751;DHT22;37579;51.074;17.004;2023-11-21T05:01:20;23.30;62.60
39751;DHT22;37579;51.074;17.004;2023-11-21T05:03:46;23.20;62.50
39751;DHT22;37579;51.074;17.004;2023-11-21T05:06:12;23.30;62.50
39751;DHT22;37579;51.074;17.004;2023-11-21T05:08:39;23.30;62.50
39751;DHT22;37579;51.074;17.004;2023-11-21T05:11:05;23.30;62.50
39751;DHT22;37579;51.074;17.004;2023-11-21T05:13:34;23.30;62.60
39751;DHT22;37579;51.074;17.004;2023-11-21T05:16:00;23.30;62.50
39751;DHT22;37579;51.074;17.004;2023-11-21T05:18:26;23.40;62.60
39751;DHT22;37579;51.074;17.004;2023-11-21T05:20:55;23.40;62.30
39751;DHT22;37579;51.074;17.004;2023-11-21T05:23:21;23.50;62.00
39751;DHT22;37579;51.074;17.004;2023-11-21T05:25:47;23.60;61.90
39751;DHT22;37579;51.074;17.004;2023-11-21T05:28:13;23.70;61.80
39751;DHT22;37579;51.074;17.004;2023-11-21T05:30:39;23.70;61.60
39751;DHT22;37579;51.074;17.004;2023-11-21T05:33:05;23.70;61.50
39751;DHT22;37579;51.074;17.004;2023-11-21T05:35:31;23.70;61.50
39751;DHT22;37579;51.074;17.004;2023-11-21T05:37:57;23.80;61.50
39751;DHT22;37579;51.074;17.004;2023-11-21T05:40:22;23.80;61.40
39751;DHT22;37579;51.074;17.004;2023-11-21T05:42:50;23.90;61.50
39751;DHT22;37579;51.074;17.004;2023-11-21T05:45:16;23.90;61.70
39751;DHT22;37579;51.074;17.004;2023-11-21T05:47:45;23.90;61.70
39751;DHT22;37579;51.074;17.004;2023-11-21T05:50:15;24.00;61.70
39751;DHT22;37579;51.074;17.004;2023-11-21T05:52:42;24.00;61.60
39751;DHT22;37579;51.074;17.004;2023-11-21T05:55:08;24.00;61.60
39751;DHT22;37579;51.074;17.004;2023-11-21T05:57:35;24.00;61.50
39751;DHT22;37579;51.074;17.004;2023-11-21T06:00:11;24.00;61.50
39751;DHT22;37579;51.074;17.004;2023-11-21T06:02:46;24.00;61.50
39751;DHT22;37579;51.074;17.004;2023-11-21T06:05:12;23.90;61.50
39751;DHT22;37579;51.074;17.004;2023-11-21T06:07:38;24.00;61.50
39751;DHT22;37579;51.074;17.004;2023-11-21T06:10:07;23.90;61.50
39751;DHT22;37579;51.074;17.004;2023-11-21T06:12:34;23.90;61.50
39751;DHT22;37579;51.074;17.004;2023-11-21T06:15:04;23.90;61.60
39751;DHT22;37579;51.074;17.004;2023-11-21T06:17:37;23.90;61.60
39751;DHT22;37579;51.074;17.004;2023-11-21T06:20:07;23.90;61.70
39751;DHT22;37579;51.074;17.004;2023-11-21T06:22:42;23.90;61.60
39751;DHT22;37579;51.074;17.004;2023-11-21T06:25:09;23.90;61.60
39751;DHT22;37579;51.074;17.004;2023-11-21T06:27:44;23.90;61.50
39751;DHT22;37579;51.074;17.004;2023-11-21T06:30:11;23.90;61.50
39751;DHT22;37579;51.074;17.004;2023-11-21T06:32:38;23.80;61.50
39751;DHT22;37579;51.074;17.004;2023-11-21T06:35:05;23.90;61.50
39751;DHT22;37579;51.074;17.004;2023-11-21T06:37:32;23.80;61.60
39751;DHT22;37579;51.074;17.004;2023-11-21T06:39:58;23.90;61.60
39751;DHT22;37579;51.074;17.004;2023-11-21T06:42:25;23.80;61.60
39751;DHT22;37579;51.074;17.004;2023-11-21T06:44:51;23.90;61.60
39751;DHT22;37579;51.074;17.004;2023-11-21T06:47:23;23.80;61.50
39751;DHT22;37579;51.074;17.004;2023-11-21T06:49:54;23.80;61.60
39751;DHT22;37579;51.074;17.004;2023-11-21T06:52:20;23.80;61.60
39751;DHT22;37579;51.074;17.004;2023-11-21T06:54:47;23.90;61.90
39751;DHT22;37579;51.074;17.004;2023-11-21T06:57:15;23.90;61.80
39751;DHT22;37579;51.074;17.004;2023-11-21T06:59:41;24.00;61.80
39751;DHT22;37579;51.074;17.004;2023-11-21T07:02:07;24.00;61.90
39751;DHT22;37579;51.074;17.004;2023-11-21T07:04:33;24.10;61.70
39751;DHT22;37579;51.074;17.004;2023-11-21T07:06:59;24.10;61.60
39751;DHT22;37579;51.074;17.004;2023-11-21T07:09:25;24.20;61.40
39751;DHT22;37579;51.074;17.004;2023-11-21T07:11:52;24.20;61.10
39751;DHT22;37579;51.074;17.004;2023-11-21T07:14:17;24.30;61.00
39751;DHT22;37579;51.074;17.004;2023-11-21T07:16:45;24.30;61.00
39751;DHT22;37579;51.074;17.004;2023-11-21T07:19:11;24.30;60.80
39751;DHT22;37579;51.074;17.004;2023-11-21T07:21:38;24.30;61.10
39751;DHT22;37579;51.074;17.004;2023-11-21T07:24:07;24.30;60.90
39751;DHT22;37579;51.074;17.004;2023-11-21T07:26:34;24.30;60.90
39751;DHT22;37579;51.074;17.004;2023-11-21T07:29:03;24.30;60.90
39751;DHT22;37579;51.074;17.004;2023-11-21T07:31:29;24.30;60.90
39751;DHT22;37579;51.074;17.004;2023-11-21T07:33:55;24.30;60.90
39751;DHT22;37579;51.074;17.004;2023-11-21T07:36:24;24.30;60.90
39751;DHT22;37579;51.074;17.004;2023-11-21T07:38:50;24.40;60.90
39751;DHT22;37579;51.074;17.004;2023-11-21T07:41:18;24.30;61.00
39751;DHT22;37579;51.074;17.004;2023-11-21T07:43:47;24.30;61.20
39751;DHT22;37579;51.074;17.004;2023-11-21T07:46:12;24.30;61.20
39751;DHT22;37579;51.074;17.004;2023-11-21T07:48:39;24.40;61.10
39751;DHT22;37579;51.074;17.004;2023-11-21T07:51:05;24.40;61.10
39751;DHT22;37579;51.074;17.004;2023-11-21T07:53:32;24.30;61.00
39751;DHT22;37579;51.074;17.004;2023-11-21T07:56:02;24.30;61.20
39751;DHT22;37579;51.074;17.004;2023-11-21T07:58:28;24.20;61.20
39751;DHT22;37579;51.074;17.004;2023-11-21T08:00:54;24.20;61.30
39751;DHT22;37579;51.074;17.004;2023-11-21T08:03:19;24.20;61.50
39751;DHT22;37579;51.074;17.004;2023-11-21T08:05:47;24.10;61.50
39751;DHT22;37579;51.074;17.004;2023-11-21T08:08:12;24.20;61.60
39751;DHT22;37579;51.074;17.004;2023-11-21T08:10:39;24.20;61.70
39751;DHT22;37579;51.074;17.004;2023-11-21T08:13:05;24.20;61.80
39751;DHT22;37579;51.074;17.004;2023-11-21T08:15:31;24.10;61.90
39751;DHT22;37579;51.074;17.004;2023-11-21T08:17:58;24.10;62.10
39751;DHT22;37579;51.074;17.004;2023-11-21T08:20:26;24.10;62.20
39751;DHT22;37579;51.074;17.004;2023-11-21T08:22:52;24.10;62.30
39751;DHT22;37579;51.074;17.004;2023-11-21T08:25:18;24.10;62.30
39751;DHT22;37579;51.074;17.004;2023-11-21T08:27:46;24.10;62.40
39751;DHT22;37579;51.074;17.004;2023-11-21T08:30:12;24.10;62.40
39751;DHT22;37579;51.074;17.004;2023-11-21T08:32:39;24.00;62.40
39751;DHT22;37579;51.074;17.004;2023-11-21T08:35:07;24.00;62.50
39751;DHT22;37579;51.074;17.004;2023-11-21T08:37:33;24.00;62.40
39751;DHT22;37579;51.074;17.004;2023-11-21T08:40:06;24.10;62.50
39751;DHT22;37579;51.074;17.004;2023-11-21T08:42:42;24.00;62.40
39751;DHT22;37579;51.074;17.004;2023-11-21T08:45:08;24.00;62.40
39751;DHT22;37579;51.074;17.004;2023-11-21T08:47:35;24.10;62.50
39751;DHT22;37579;51.074;17.004;2023-11-21T08:50:02;24.10;62.40
39751;DHT22;37579;51.074;17.004;2023-11-21T08:52:28;24.00;62.50
39751;DHT22;37579;51.074;17.004;2023-11-21T08:54:54;24.00;62.50
39751;DHT22;37579;51.074;17.004;2023-11-21T08:57:24;24.00;62.40
39751;DHT22;37579;51.074;17.004;2023-11-21T08:59:50;23.90;62.50
39751;DHT22;37579;51.074;17.004;2023-11-21T09:02:26;24.00;62.40
39751;DHT22;37579;51.074;17.004;2023-11-21T09:04:52;23.90;62.40
39751;DHT22;37579;51.074;17.004;2023-11-21T09:07:19;23.90;62.50
39751;DHT22;37579;51.074;17.004;2023-11-21T09:09:46;23.90;62.40
39751;DHT22;37579;51.074;17.004;2023-11-21T09:12:13;23.90;62.40
39751;DHT22;37579;51.074;17.004;2023-11-21T09:14:39;23.90;62.40
39751;DHT22;37579;51.074;17.004;2023-11-21T09:17:05;23.90;62.20
39751;DHT22;37579;51.074;17.004;2023-11-21T09:19:39;23.90;62.20
39751;DHT22;37579;51.074;17.004;2023-11-21T09:22:05;23.90;62.10
39751;DHT22;37579;51.074;17.004;2023-11-21T09:24:32;23.90;62.10
39751;DHT22;37579;51.074;17.004;2023-11-21T09:26:58;23.90;62.30
39751;DHT22;37579;51.074;17.004;2023-11-21T09:29:26;24.00;62.50
39751;DHT22;37579;51.074;17.004;2023-11-21T09:31:51;23.90;62.70
39751;DHT22;37579;51.074;17.004;2023-11-21T09:34:17;24.00;63.10
39751;DHT22;37579;51.074;17.004;2023-11-21T09:36:47;24.00;63.40
39751;DHT22;37579;51.074;17.004;2023-11-21T09:39:13;24.00;63.40
39751;DHT22;37579;51.074;17.004;2023-11-21T09:41:46;24.00;63.50
39751;DHT22;37579;51.074;17.004;2023-11-21T09:44:32;24.00;63.50
39751;DHT22;37579;51.074;17.004;2023-11-21T09:47:02;24.00;63.60
39751;DHT22;37579;51.074;17.004;2023-11-21T09:49:29;24.00;63.60
39751;DHT22;37579;51.074;17.004;2023-11-21T09:52:01;23.90;63.40
39751;DHT22;37579;51.074;17.004;2023-11-21T09:54:30;24.00;63.50
39751;DHT22;37579;51.074;17.004;2023-11-21T09:56:59;24.00;63.70
39751;DHT22;37579;51.074;17.004;2023-11-21T09:59:31;24.00;63.60
39751;DHT22;37579;51.074;17.004;2023-11-21T10:01:58;24.00;63.50
39751;DHT22;37579;51.074;17.004;2023-11-21T10:04:27;24.00;63.80
39751;DHT22;37579;51.074;17.004;2023-11-21T10:06:54;24.00;63.80
39751;DHT22;37579;51.074;17.004;2023-11-21T10:09:21;24.00;63.90
39751;DHT22;37579;51.074;17.004;2023-11-21T10:11:47;24.00;63.70
39751;DHT22;37579;51.074;17.004;2023-11-21T10:14:17;24.00;63.60
39751;DHT22;37579;51.074;17.004;2023-11-21T10:16:45;23.90;63.60
39751;DHT22;37579;51.074;17.004;2023-11-21T10:19:12;24.00;63.70
39751;DHT22;37579;51.074;17.004;2023-11-21T10:21:41;24.00;63.60
39751;DHT22;37579;51.074;17.004;2023-11-21T10:24:07;23.90;63.50
39751;DHT22;37579;51.074;17.004;2023-11-21T10:26:33;23.90;63.60
39751;DHT22;37579;51.074;17.004;2023-11-21T10:29:01;23.90;63.60
39751;DHT22;37579;51.074;17.004;2023-11-21T10:31:30;23.90;63.60
39751;DHT22;37579;51.074;17.004;2023-11-21T10:34:15;23.90;63.40
39751;DHT22;37579;51.074;17.004;2023-11-21T10:36:41;23.90;63.60
39751;DHT22;37579;51.074;17.004;2023-11-21T10:39:08;23.90;63.70
39751;DHT22;37579;51.074;17.004;2023-11-21T10:41:56;23.90;63.60
39751;DHT22;37579;51.074;17.004;2023-11-21T10:44:22;24.00;63.70
39751;DHT22;37579;51.074;17.004;2023-11-21T10:46:53;24.00;63.60
39751;DHT22;37579;51.074;17.004;2023-11-21T10:49:26;24.10;63.50
39751;DHT22;37579;51.074;17.004;2023-11-21T10:51:53;24.10;63.40
39751;DHT22;37579;51.074;17.004;2023-11-21T10:54:24;24.10;63.40
39751;DHT22;37579;51.074;17.004;2023-11-21T10:56:55;24.10;63.40
39751;DHT22;37579;51.074;17.004;2023-11-21T10:59:22;24.10;63.30
39751;DHT22;37579;51.074;17.004;2023-11-21T11:01:51;24.10;63.30
39751;DHT22;37579;51.074;17.004;2023-11-21T11:04:22;24.10;63.10
39751;DHT22;37579;51.074;17.004;2023-11-21T11:07:02;24.10;63.10
39751;DHT22;37579;51.074;17.004;2023-11-21T11:09:31;24.10;63.10
39751;DHT22;37579;51.074;17.004;2023-11-21T11:11:59;24.10;62.80
39751;DHT22;37579;51.074;17.004;2023-11-21T11:14:25;24.10;62.90
39751;DHT22;37579;51.074;17.004;2023-11-21T11:16:54;24.00;62.80
39751;DHT22;37579;51.074;17.004;2023-11-21T11:19:21;24.00;62.90
39751;DHT22;37579;51.074;17.004;2023-11-21T11:24:57;24.10;62.90
39751;DHT22;37579;51.074;17.004;2023-11-21T11:27:48;24.10;63.00
39751;DHT22;37579;51.074;17.004;2023-11-21T11:33:31;24.10;63.20
39751;DHT22;37579;51.074;17.004;2023-11-21T11:36:06;24.00;63.30
39751;DHT22;37579;51.074;17.004;2023-11-21T11:38:36;24.00;63.50
39751;DHT22;37579;51.074;17.004;2023-11-21T11:41:04;23.90;63.40
39751;DHT22;37579;51.074;17.004;2023-11-21T11:43:31;23.90;63.40
39751;DHT22;37579;51.074;17.004;2023-11-21T11:46:11;23.90;63.40
39751;DHT22;37579;51.074;17.004;2023-11-21T11:48:40;23.90;63.40
39751;DHT22;37579;51.074;17.004;2023-11-21T11:53:45;23.90;63.50
39751;DHT22;37579;51.074;17.004;2023-11-21T11:56:31;23.90;63.40
39751;DHT22;37579;51.074;17.004;2023-11-21T11:59:01;23.90;63.50
39751;DHT22;37579;51.074;17.004;2023-11-21T12:01:35;23.90;63.40
39751;DHT22;37579;51.074;17.004;2023-11-21T12:06:51;23.90;63.40
39751;DHT22;37579;51.074;17.004;2023-11-21T12:09:19;23.90;63.40
39751;DHT22;37579;51.074;17.004;2023-11-21T12:11:48;23.90;63.30
39751;DHT22;37579;51.074;17.004;2023-11-21T12:14:15;23.90;63.30
39751;DHT22;37579;51.074;17.004;2023-11-21T12:16:41;23.90;63.20
39751;DHT22;37579;51.074;17.004;2023-11-21T12:19:10;23.90;62.90
39751;DHT22;37579;51.074;17.004;2023-11-21T12:21:36;23.90;62.60
39751;DHT22;37579;51.074;17.004;2023-11-21T12:24:02;23.90;62.90
39751;DHT22;37579;51.074;17.004;2023-11-21T12:26:28;23.90;63.00
39751;DHT22;37579;51.074;17.004;2023-11-21T12:28:54;23.90;63.00
39751;DHT22;37579;51.074;17.004;2023-11-21T12:31:22;23.90;63.00
39751;DHT22;37579;51.074;17.004;2023-11-21T12:33:47;23.90;63.00
39751;DHT22;37579;51.074;17.004;2023-11-21T12:36:13;23.90;63.30
39751;DHT22;37579;51.074;17.004;2023-11-21T12:38:39;23.80;63.50
39751;DHT22;37579;51.074;17.004;2023-11-21T12:41:06;23.80;63.50
39751;DHT22;37579;51.074;17.004;2023-11-21T12:43:35;23.90;63.70
39751;DHT22;37579;51.074;17.004;2023-11-21T12:46:09;23.80;63.80
39751;DHT22;37579;51.074;17.004;2023-11-21T12:48:38;23.90;64.10
39751;DHT22;37579;51.074;17.004;2023-11-21T12:51:11;23.90;64.30
39751;DHT22;37579;51.074;17.004;2023-11-21T12:53:41;23.90;64.40
39751;DHT22;37579;51.074;17.004;2023-11-21T12:56:09;23.90;64.70
39751;DHT22;37579;51.074;17.004;2023-11-21T12:58:36;23.80;64.80
39751;DHT22;37579;51.074;17.004;2023-11-21T13:01:05;23.80;64.80
39751;DHT22;37579;51.074;17.004;2023-11-21T13:03:31;23.90;64.70
39751;DHT22;37579;51.074;17.004;2023-11-21T13:05:59;23.90;64.70
39751;DHT22;37579;51.074;17.004;2023-11-21T13:08:26;23.90;64.40
39751;DHT22;37579;51.074;17.004;2023-11-21T13:10:55;24.00;64.20
39751;DHT22;37579;51.074;17.004;2023-11-21T13:13:22;24.00;64.10
39751;DHT22;37579;51.074;17.004;2023-11-21T13:15:54;24.00;64.00
39751;DHT22;37579;51.074;17.004;2023-11-21T13:18:23;24.10;63.80
39751;DHT22;37579;51.074;17.004;2023-11-21T13:20:49;24.10;63.60
39751;DHT22;37579;51.074;17.004;2023-11-21T13:23:15;24.10;63.60
39751;DHT22;37579;51.074;17.004;2023-11-21T13:25:45;24.00;63.50
39751;DHT22;37579;51.074;17.004;2023-11-21T13:28:12;24.10;63.50
39751;DHT22;37579;51.074;17.004;2023-11-21T13:30:38;24.10;63.50
39751;DHT22;37579;51.074;17.004;2023-11-21T13:33:06;24.00;63.40
39751;DHT22;37579;51.074;17.004;2023-11-21T13:35:34;24.00;63.40
39751;DHT22;37579;51.074;17.004;2023-11-21T13:38:14;24.00;63.20
39751;DHT22;37579;51.074;17.004;2023-11-21T13:40:48;24.00;62.90
39751;DHT22;37579;51.074;17.004;2023-11-21T13:43:19;24.00;62.40
39751;DHT22;37579;51.074;17.004;2023-11-21T13:45:46;24.00;63.10
39751;DHT22;37579;51.074;17.004;2023-11-21T13:48:13;24.00;63.50
39751;DHT22;37579;51.074;17.004;2023-11-21T13:50:40;24.00;64.20
39751;DHT22;37579;51.074;17.004;2023-11-21T13:53:14;24.00;64.90
39751;DHT22;37579;51.074;17.004;2023-11-21T13:55:53;24.00;64.80
39751;DHT22;37579;51.074;17.004;2023-11-21T13:58:23;24.00;64.80
39751;DHT22;37579;51.074;17.004;2023-11-21T14:01:08;23.90;64.80
39751;DHT22;37579;51.074;17.004;2023-11-21T14:04:03;23.90;64.50
39751;DHT22;37579;51.074;17.004;2023-11-21T14:06:43;23.90;64.10
39751;DHT22;37579;51.074;17.004;2023-11-21T14:09:18;23.80;64.80
39751;DHT22;37579;51.074;17.004;2023-11-21T14:11:51;23.90;63.40
39751;DHT22;37579;51.074;17.004;2023-11-21T14:14:19;23.90;63.20
39751;DHT22;37579;51.074;17.004;2023-11-21T14:16:45;23.80;63.30
39751;DHT22;37579;51.074;17.004;2023-11-21T14:19:11;23.80;63.30
39751;DHT22;37579;51.074;17.004;2023-11-21T14:21:46;23.80;63.40
39751;DHT22;37579;51.074;17.004;2023-11-21T14:24:14;23.00;48.00
39751;DHT22;37579;51.074;17.004;2023-11-21T14:26:43;22.50;46.40
39751;DHT22;37579;51.074;17.004;2023-11-21T14:29:11;22.00;46.20
39751;DHT22;37579;51.074;17.004;2023-11-21T14:31:40;22.30;49.10
39751;DHT22;37579;51.074;17.004;2023-11-21T14:34:07;22.80;51.10
39751;DHT22;37579;51.074;17.004;2023-11-21T14:36:36;23.10;52.00
39751;DHT22;37579;51.074;17.004;2023-11-21T14:39:05;23.30;52.30
39751;DHT22;37579;51.074;17.004;2023-11-21T14:41:41;23.40;52.60
39751;DHT22;37579;51.074;17.004;2023-11-21T14:44:09;23.50;52.90
39751;DHT22;37579;51.074;17.004;2023-11-21T14:46:38;23.60;53.10
39751;DHT22;37579;51.074;17.004;2023-11-21T14:49:05;23.70;53.40
39751;DHT22;37579;51.074;17.004;2023-11-21T14:51:52;23.80;53.70
39751;DHT22;37579;51.074;17.004;2023-11-21T14:54:33;23.10;48.70
39751;DHT22;37579;51.074;17.004;2023-11-21T14:57:05;23.30;50.60
39751;DHT22;37579;51.074;17.004;2023-11-21T14:59:36;23.50;50.90
39751;DHT22;37579;51.074;17.004;2023-11-21T15:02:02;23.70;51.10
39751;DHT22;37579;51.074;17.004;2023-11-21T15:04:43;23.70;51.40
39751;DHT22;37579;51.074;17.004;2023-11-21T15:07:10;23.80;51.80
39751;DHT22;37579;51.074;17.004;2023-11-21T15:09:38;23.80;52.10
39751;DHT22;37579;51.074;17.004;2023-11-21T15:12:07;23.80;52.30
39751;DHT22;37579;51.074;17.004;2023-11-21T15:14:44;23.80;52.60
39751;DHT22;37579;51.074;17.004;2023-11-21T15:17:16;23.80;52.80
39751;DHT22;37579;51.074;17.004;2023-11-21T15:19:56;23.80;53.70
39751;DHT22;37579;51.074;17.004;2023-11-21T15:22:22;23.80;53.30
39751;DHT22;37579;51.074;17.004;2023-11-21T15:24:48;23.80;53.50
39751;DHT22;37579;51.074;17.004;2023-11-21T15:27:16;23.80;53.70
39751;DHT22;37579;51.074;17.004;2023-11-21T15:29:43;23.80;53.90
39751;DHT22;37579;51.074;17.004;2023-11-21T15:32:09;23.80;54.00